Huvudsida
METAR-TAF:

METAR-TAF

Flygplatser :

Ventspils lidosta

Ventspils, Lettland

latitud: 57-21-28N, longitud: 021-32-39E, höjd: 6 m

Aktuellt väderrapport

Denna rapport gjordes för 37 minuter sedan, klockan 18:20 UTC
Vind 22 kt från nordväst i byarna ända upp till 35 kt
Temperatur 9°C
Fuktighet 81%
Tryck 983 hPa
Sikt 10 km eller mer
Spridda moln på en höjd av 1800 ft
Brutna moln på en höjd av 2300 ft
Mulet på en höjd av 3200 ft

METAR: EVVA 231820Z AUTO 31022G35KT 9999 SCT018 BKN023 OVC032 09/06 Q0983

Tid: 21:57 (18:57 UTC)


TAF: saknas

Aktuella väderrapporter och prognoser från 4000 flygplatser (METAR- och TAF-rapporter).

De tillgängliga stationerna syns som gula och röda prickar på kartan.

För musen över prickarna för att se namnen på stationerna.

Klicka sedan för att få väderrapporter och prognoser.

För att ändra kartan: Klicka på de gröna knapparna med ett svart kors på för att zooma in; den gröna knappen med ett streck på för att zooma ut; eller på de gröna pilarna för angränsande kartor.


METAR-TAF: